sensor_id;sensor_type;location;lat;lon;timestamp;P1;durP1;ratioP1;P2;durP2;ratioP2
42904;SDS011;28550;51.228;4.528;2023-05-20T00:00:08;20.88;;;11.50;;
42904;SDS011;28550;51.228;4.528;2023-05-20T00:02:35;19.90;;;10.90;;
42904;SDS011;28550;51.228;4.528;2023-05-20T00:05:01;27.92;;;12.45;;
42904;SDS011;28550;51.228;4.528;2023-05-20T00:07:26;19.88;;;11.98;;
42904;SDS011;28550;51.228;4.528;2023-05-20T00:09:53;21.23;;;11.98;;
42904;SDS011;28550;51.228;4.528;2023-05-20T00:12:20;19.38;;;10.95;;
42904;SDS011;28550;51.228;4.528;2023-05-20T00:14:45;26.80;;;12.23;;
42904;SDS011;28550;51.228;4.528;2023-05-20T00:17:11;21.88;;;11.88;;
42904;SDS011;28550;51.228;4.528;2023-05-20T00:19:37;16.80;;;10.35;;
42904;SDS011;28550;51.228;4.528;2023-05-20T00:22:03;18.35;;;11.00;;
42904;SDS011;28550;51.228;4.528;2023-05-20T00:24:29;17.65;;;11.45;;
42904;SDS011;28550;51.228;4.528;2023-05-20T00:26:55;17.33;;;10.52;;
42904;SDS011;28550;51.228;4.528;2023-05-20T00:29:20;17.35;;;10.20;;
42904;SDS011;28550;51.228;4.528;2023-05-20T00:31:46;14.25;;;9.65;;
42904;SDS011;28550;51.228;4.528;2023-05-20T00:34:12;17.17;;;9.80;;
42904;SDS011;28550;51.228;4.528;2023-05-20T00:36:38;17.00;;;8.77;;
42904;SDS011;28550;51.228;4.528;2023-05-20T00:39:03;11.65;;;8.52;;
42904;SDS011;28550;51.228;4.528;2023-05-20T00:41:31;12.13;;;8.25;;
42904;SDS011;28550;51.228;4.528;2023-05-20T00:43:56;14.63;;;8.38;;
42904;SDS011;28550;51.228;4.528;2023-05-20T00:46:22;12.60;;;8.30;;
42904;SDS011;28550;51.228;4.528;2023-05-20T00:48:50;18.38;;;8.90;;
42904;SDS011;28550;51.228;4.528;2023-05-20T00:51:16;12.90;;;7.82;;
42904;SDS011;28550;51.228;4.528;2023-05-20T00:53:43;10.80;;;7.45;;
42904;SDS011;28550;51.228;4.528;2023-05-20T00:56:09;12.52;;;7.95;;
42904;SDS011;28550;51.228;4.528;2023-05-20T00:58:34;12.98;;;7.25;;
42904;SDS011;28550;51.228;4.528;2023-05-20T01:01:01;15.93;;;7.95;;
42904;SDS011;28550;51.228;4.528;2023-05-20T01:03:28;14.05;;;7.25;;
42904;SDS011;28550;51.228;4.528;2023-05-20T01:05:55;9.30;;;6.85;;
42904;SDS011;28550;51.228;4.528;2023-05-20T01:08:21;11.93;;;8.25;;
42904;SDS011;28550;51.228;4.528;2023-05-20T01:10:48;12.65;;;8.25;;
42904;SDS011;28550;51.228;4.528;2023-05-20T01:13:19;12.50;;;7.20;;
42904;SDS011;28550;51.228;4.528;2023-05-20T01:15:48;13.98;;;7.72;;
42904;SDS011;28550;51.228;4.528;2023-05-20T01:18:16;14.63;;;7.38;;
42904;SDS011;28550;51.228;4.528;2023-05-20T01:20:48;11.32;;;7.15;;
42904;SDS011;28550;51.228;4.528;2023-05-20T01:23:16;11.93;;;8.10;;
42904;SDS011;28550;51.228;4.528;2023-05-20T01:25:41;14.60;;;7.80;;
42904;SDS011;28550;51.228;4.528;2023-05-20T01:28:08;13.52;;;7.50;;
42904;SDS011;28550;51.228;4.528;2023-05-20T01:30:35;14.25;;;7.70;;
42904;SDS011;28550;51.228;4.528;2023-05-20T01:33:06;15.88;;;7.80;;
42904;SDS011;28550;51.228;4.528;2023-05-20T01:35:35;10.55;;;7.18;;
42904;SDS011;28550;51.228;4.528;2023-05-20T01:38:02;11.35;;;7.65;;
42904;SDS011;28550;51.228;4.528;2023-05-20T01:40:29;14.35;;;7.78;;
42904;SDS011;28550;51.228;4.528;2023-05-20T01:42:55;15.38;;;7.60;;
42904;SDS011;28550;51.228;4.528;2023-05-20T01:45:23;15.10;;;8.80;;
42904;SDS011;28550;51.228;4.528;2023-05-20T01:47:49;10.77;;;8.07;;
42904;SDS011;28550;51.228;4.528;2023-05-20T01:50:15;12.40;;;7.85;;
42904;SDS011;28550;51.228;4.528;2023-05-20T01:52:41;12.55;;;7.85;;
42904;SDS011;28550;51.228;4.528;2023-05-20T01:55:07;15.10;;;7.55;;
42904;SDS011;28550;51.228;4.528;2023-05-20T01:57:33;12.52;;;8.10;;
42904;SDS011;28550;51.228;4.528;2023-05-20T01:59:58;15.80;;;8.30;;
42904;SDS011;28550;51.228;4.528;2023-05-20T02:02:24;13.35;;;7.90;;
42904;SDS011;28550;51.228;4.528;2023-05-20T02:04:50;13.48;;;8.25;;
42904;SDS011;28550;51.228;4.528;2023-05-20T02:07:17;13.95;;;8.07;;
42904;SDS011;28550;51.228;4.528;2023-05-20T02:09:44;12.57;;;7.88;;
42904;SDS011;28550;51.228;4.528;2023-05-20T02:12:10;15.43;;;8.57;;
42904;SDS011;28550;51.228;4.528;2023-05-20T02:14:40;13.55;;;8.25;;
42904;SDS011;28550;51.228;4.528;2023-05-20T02:17:07;8.63;;;7.07;;
42904;SDS011;28550;51.228;4.528;2023-05-20T02:19:33;13.98;;;7.88;;
42904;SDS011;28550;51.228;4.528;2023-05-20T02:21:59;14.70;;;8.95;;
42904;SDS011;28550;51.228;4.528;2023-05-20T02:24:24;18.65;;;9.35;;
42904;SDS011;28550;51.228;4.528;2023-05-20T02:26:50;17.27;;;8.85;;
42904;SDS011;28550;51.228;4.528;2023-05-20T02:29:17;15.85;;;9.18;;
42904;SDS011;28550;51.228;4.528;2023-05-20T02:31:46;13.18;;;8.43;;
42904;SDS011;28550;51.228;4.528;2023-05-20T02:34:15;13.90;;;8.90;;
42904;SDS011;28550;51.228;4.528;2023-05-20T02:36:42;20.45;;;9.10;;
42904;SDS011;28550;51.228;4.528;2023-05-20T02:39:07;15.18;;;9.23;;
42904;SDS011;28550;51.228;4.528;2023-05-20T02:41:33;18.98;;;9.55;;
42904;SDS011;28550;51.228;4.528;2023-05-20T02:43:59;18.15;;;9.13;;
42904;SDS011;28550;51.228;4.528;2023-05-20T02:46:25;13.57;;;8.57;;
42904;SDS011;28550;51.228;4.528;2023-05-20T02:48:50;17.38;;;9.52;;
42904;SDS011;28550;51.228;4.528;2023-05-20T02:51:16;19.60;;;9.57;;
42904;SDS011;28550;51.228;4.528;2023-05-20T02:53:42;13.75;;;8.50;;
42904;SDS011;28550;51.228;4.528;2023-05-20T02:56:08;11.68;;;7.90;;
42904;SDS011;28550;51.228;4.528;2023-05-20T02:58:33;14.48;;;10.40;;
42904;SDS011;28550;51.228;4.528;2023-05-20T03:01:00;20.83;;;10.23;;
42904;SDS011;28550;51.228;4.528;2023-05-20T03:03:26;17.40;;;9.63;;
42904;SDS011;28550;51.228;4.528;2023-05-20T03:05:52;18.17;;;9.93;;
42904;SDS011;28550;51.228;4.528;2023-05-20T03:08:19;18.65;;;9.85;;
42904;SDS011;28550;51.228;4.528;2023-05-20T03:10:46;13.75;;;9.38;;
42904;SDS011;28550;51.228;4.528;2023-05-20T03:13:12;16.60;;;8.43;;
42904;SDS011;28550;51.228;4.528;2023-05-20T03:15:39;14.38;;;9.18;;
42904;SDS011;28550;51.228;4.528;2023-05-20T03:18:11;16.63;;;8.57;;
42904;SDS011;28550;51.228;4.528;2023-05-20T03:20:38;16.65;;;9.18;;
42904;SDS011;28550;51.228;4.528;2023-05-20T03:23:05;18.75;;;10.60;;
42904;SDS011;28550;51.228;4.528;2023-05-20T03:25:31;12.88;;;8.52;;
42904;SDS011;28550;51.228;4.528;2023-05-20T03:27:58;15.85;;;9.25;;
42904;SDS011;28550;51.228;4.528;2023-05-20T03:30:25;15.23;;;8.65;;
42904;SDS011;28550;51.228;4.528;2023-05-20T03:32:52;11.95;;;9.30;;
42904;SDS011;28550;51.228;4.528;2023-05-20T03:35:18;17.30;;;9.32;;
42904;SDS011;28550;51.228;4.528;2023-05-20T03:37:43;18.33;;;9.57;;
42904;SDS011;28550;51.228;4.528;2023-05-20T03:40:09;17.27;;;9.90;;
42904;SDS011;28550;51.228;4.528;2023-05-20T03:42:36;17.02;;;10.27;;
42904;SDS011;28550;51.228;4.528;2023-05-20T03:45:03;15.23;;;10.05;;
42904;SDS011;28550;51.228;4.528;2023-05-20T03:47:29;16.27;;;10.20;;
42904;SDS011;28550;51.228;4.528;2023-05-20T03:49:55;17.40;;;10.20;;
42904;SDS011;28550;51.228;4.528;2023-05-20T03:52:21;16.77;;;9.82;;
42904;SDS011;28550;51.228;4.528;2023-05-20T03:54:47;19.13;;;9.48;;
42904;SDS011;28550;51.228;4.528;2023-05-20T03:57:12;23.55;;;10.48;;
42904;SDS011;28550;51.228;4.528;2023-05-20T03:59:38;18.60;;;10.20;;
42904;SDS011;28550;51.228;4.528;2023-05-20T04:02:04;19.27;;;10.13;;
42904;SDS011;28550;51.228;4.528;2023-05-20T04:04:31;12.75;;;9.40;;
42904;SDS011;28550;51.228;4.528;2023-05-20T04:06:59;28.65;;;10.35;;
42904;SDS011;28550;51.228;4.528;2023-05-20T04:09:26;24.25;;;10.90;;
42904;SDS011;28550;51.228;4.528;2023-05-20T04:11:52;14.82;;;10.05;;
42904;SDS011;28550;51.228;4.528;2023-05-20T04:14:18;18.60;;;10.18;;
42904;SDS011;28550;51.228;4.528;2023-05-20T04:16:44;17.45;;;9.20;;
42904;SDS011;28550;51.228;4.528;2023-05-20T04:19:11;12.80;;;9.02;;
42904;SDS011;28550;51.228;4.528;2023-05-20T04:21:37;13.80;;;8.63;;
42904;SDS011;28550;51.228;4.528;2023-05-20T04:24:03;18.20;;;10.15;;
42904;SDS011;28550;51.228;4.528;2023-05-20T04:26:30;20.83;;;10.30;;
42904;SDS011;28550;51.228;4.528;2023-05-20T04:28:57;15.18;;;9.55;;
42904;SDS011;28550;51.228;4.528;2023-05-20T04:31:26;12.88;;;8.77;;
42904;SDS011;28550;51.228;4.528;2023-05-20T04:33:52;16.58;;;9.98;;
42904;SDS011;28550;51.228;4.528;2023-05-20T04:36:18;19.00;;;9.75;;
42904;SDS011;28550;51.228;4.528;2023-05-20T04:38:44;12.52;;;8.55;;
42904;SDS011;28550;51.228;4.528;2023-05-20T04:41:11;17.23;;;9.13;;
42904;SDS011;28550;51.228;4.528;2023-05-20T04:43:37;19.77;;;8.93;;
42904;SDS011;28550;51.228;4.528;2023-05-20T04:46:04;12.75;;;9.15;;
42904;SDS011;28550;51.228;4.528;2023-05-20T04:48:30;16.88;;;9.50;;
42904;SDS011;28550;51.228;4.528;2023-05-20T04:51:01;19.70;;;8.80;;
42904;SDS011;28550;51.228;4.528;2023-05-20T04:53:27;19.35;;;9.35;;
42904;SDS011;28550;51.228;4.528;2023-05-20T04:58:23;13.88;;;9.70;;
42904;SDS011;28550;51.228;4.528;2023-05-20T05:00:52;17.42;;;9.25;;
42904;SDS011;28550;51.228;4.528;2023-05-20T05:03:18;15.88;;;8.80;;
42904;SDS011;28550;51.228;4.528;2023-05-20T05:05:45;18.77;;;10.05;;
42904;SDS011;28550;51.228;4.528;2023-05-20T05:08:11;16.50;;;9.52;;
42904;SDS011;28550;51.228;4.528;2023-05-20T05:10:40;17.05;;;8.60;;
42904;SDS011;28550;51.228;4.528;2023-05-20T05:13:06;17.30;;;8.68;;
42904;SDS011;28550;51.228;4.528;2023-05-20T05:15:32;14.80;;;8.55;;
42904;SDS011;28550;51.228;4.528;2023-05-20T05:18:00;18.05;;;9.57;;
42904;SDS011;28550;51.228;4.528;2023-05-20T05:20:28;12.68;;;8.38;;
42904;SDS011;28550;51.228;4.528;2023-05-20T05:22:54;16.88;;;9.45;;
42904;SDS011;28550;51.228;4.528;2023-05-20T05:25:21;14.02;;;8.45;;
42904;SDS011;28550;51.228;4.528;2023-05-20T05:27:51;19.08;;;8.38;;
42904;SDS011;28550;51.228;4.528;2023-05-20T05:30:19;14.95;;;9.20;;
42904;SDS011;28550;51.228;4.528;2023-05-20T05:32:46;10.93;;;7.18;;
42904;SDS011;28550;51.228;4.528;2023-05-20T05:35:12;14.88;;;8.52;;
42904;SDS011;28550;51.228;4.528;2023-05-20T05:37:37;15.05;;;8.85;;
42904;SDS011;28550;51.228;4.528;2023-05-20T05:40:03;18.50;;;8.23;;
42904;SDS011;28550;51.228;4.528;2023-05-20T05:42:32;15.68;;;8.52;;
42904;SDS011;28550;51.228;4.528;2023-05-20T05:44:57;13.52;;;7.63;;
42904;SDS011;28550;51.228;4.528;2023-05-20T05:47:23;17.10;;;8.30;;
42904;SDS011;28550;51.228;4.528;2023-05-20T05:49:53;13.50;;;8.40;;
42904;SDS011;28550;51.228;4.528;2023-05-20T05:52:19;10.93;;;7.43;;
42904;SDS011;28550;51.228;4.528;2023-05-20T05:54:45;16.65;;;7.80;;
42904;SDS011;28550;51.228;4.528;2023-05-20T05:57:11;15.32;;;8.05;;
42904;SDS011;28550;51.228;4.528;2023-05-20T05:59:37;14.10;;;8.43;;
42904;SDS011;28550;51.228;4.528;2023-05-20T06:02:02;15.38;;;8.20;;
42904;SDS011;28550;51.228;4.528;2023-05-20T06:04:30;14.88;;;7.97;;
42904;SDS011;28550;51.228;4.528;2023-05-20T06:06:56;16.58;;;7.63;;
42904;SDS011;28550;51.228;4.528;2023-05-20T06:09:21;12.63;;;7.95;;
42904;SDS011;28550;51.228;4.528;2023-05-20T06:11:47;11.88;;;7.38;;
42904;SDS011;28550;51.228;4.528;2023-05-20T06:14:13;13.15;;;7.30;;
42904;SDS011;28550;51.228;4.528;2023-05-20T06:16:38;12.75;;;7.70;;
42904;SDS011;28550;51.228;4.528;2023-05-20T06:19:04;15.52;;;8.02;;
42904;SDS011;28550;51.228;4.528;2023-05-20T06:21:30;10.07;;;6.93;;
42904;SDS011;28550;51.228;4.528;2023-05-20T06:23:56;10.18;;;7.55;;
42904;SDS011;28550;51.228;4.528;2023-05-20T06:26:23;15.88;;;7.43;;
42904;SDS011;28550;51.228;4.528;2023-05-20T06:28:49;11.88;;;7.22;;
42904;SDS011;28550;51.228;4.528;2023-05-20T06:31:15;15.73;;;8.00;;
42904;SDS011;28550;51.228;4.528;2023-05-20T06:33:42;12.00;;;7.20;;
42904;SDS011;28550;51.228;4.528;2023-05-20T06:36:07;13.25;;;7.35;;
42904;SDS011;28550;51.228;4.528;2023-05-20T06:38:35;14.43;;;7.82;;
42904;SDS011;28550;51.228;4.528;2023-05-20T06:41:01;15.63;;;7.13;;
42904;SDS011;28550;51.228;4.528;2023-05-20T06:43:27;12.10;;;7.10;;
42904;SDS011;28550;51.228;4.528;2023-05-20T06:45:52;12.10;;;6.70;;
42904;SDS011;28550;51.228;4.528;2023-05-20T06:48:20;12.43;;;6.13;;
42904;SDS011;28550;51.228;4.528;2023-05-20T06:50:46;11.60;;;6.85;;
42904;SDS011;28550;51.228;4.528;2023-05-20T06:53:11;19.35;;;6.57;;
42904;SDS011;28550;51.228;4.528;2023-05-20T06:55:37;8.18;;;6.03;;
42904;SDS011;28550;51.228;4.528;2023-05-20T06:58:03;9.07;;;6.18;;
42904;SDS011;28550;51.228;4.528;2023-05-20T07:00:28;11.27;;;6.20;;
42904;SDS011;28550;51.228;4.528;2023-05-20T07:02:55;10.40;;;5.82;;
42904;SDS011;28550;51.228;4.528;2023-05-20T07:05:21;12.30;;;6.20;;
42904;SDS011;28550;51.228;4.528;2023-05-20T07:07:48;11.50;;;6.00;;
42904;SDS011;28550;51.228;4.528;2023-05-20T07:10:14;9.90;;;6.05;;
42904;SDS011;28550;51.228;4.528;2023-05-20T07:12:40;9.60;;;6.00;;
42904;SDS011;28550;51.228;4.528;2023-05-20T07:15:06;9.15;;;6.10;;
42904;SDS011;28550;51.228;4.528;2023-05-20T07:17:32;7.80;;;6.22;;
42904;SDS011;28550;51.228;4.528;2023-05-20T07:19:58;9.60;;;5.53;;
42904;SDS011;28550;51.228;4.528;2023-05-20T07:22:24;10.70;;;5.32;;
42904;SDS011;28550;51.228;4.528;2023-05-20T07:24:50;7.38;;;4.75;;
42904;SDS011;28550;51.228;4.528;2023-05-20T07:27:17;8.95;;;4.97;;
42904;SDS011;28550;51.228;4.528;2023-05-20T07:29:42;9.20;;;5.47;;
42904;SDS011;28550;51.228;4.528;2023-05-20T07:32:08;8.25;;;5.03;;
42904;SDS011;28550;51.228;4.528;2023-05-20T07:34:34;5.82;;;4.95;;
42904;SDS011;28550;51.228;4.528;2023-05-20T07:37:00;10.38;;;5.78;;
42904;SDS011;28550;51.228;4.528;2023-05-20T07:39:26;10.80;;;6.03;;
42904;SDS011;28550;51.228;4.528;2023-05-20T07:41:51;9.48;;;4.65;;
42904;SDS011;28550;51.228;4.528;2023-05-20T07:44:17;12.27;;;5.25;;
42904;SDS011;28550;51.228;4.528;2023-05-20T07:46:47;10.90;;;4.85;;
42904;SDS011;28550;51.228;4.528;2023-05-20T07:49:13;7.00;;;4.75;;
42904;SDS011;28550;51.228;4.528;2023-05-20T07:51:40;5.97;;;4.55;;
42904;SDS011;28550;51.228;4.528;2023-05-20T07:54:05;5.47;;;4.32;;
42904;SDS011;28550;51.228;4.528;2023-05-20T07:56:31;9.10;;;5.28;;
42904;SDS011;28550;51.228;4.528;2023-05-20T07:58:57;10.32;;;4.72;;
42904;SDS011;28550;51.228;4.528;2023-05-20T08:01:27;10.95;;;5.22;;
42904;SDS011;28550;51.228;4.528;2023-05-20T08:03:53;14.60;;;5.25;;
42904;SDS011;28550;51.228;4.528;2023-05-20T08:06:19;7.20;;;4.43;;
42904;SDS011;28550;51.228;4.528;2023-05-20T08:08:45;5.55;;;4.43;;
42904;SDS011;28550;51.228;4.528;2023-05-20T08:11:12;6.40;;;4.40;;
42904;SDS011;28550;51.228;4.528;2023-05-20T08:13:38;9.10;;;4.55;;
42904;SDS011;28550;51.228;4.528;2023-05-20T08:16:05;7.07;;;4.35;;
42904;SDS011;28550;51.228;4.528;2023-05-20T08:18:33;18.00;;;5.25;;
42904;SDS011;28550;51.228;4.528;2023-05-20T08:21:01;7.97;;;4.20;;
42904;SDS011;28550;51.228;4.528;2023-05-20T08:23:27;10.15;;;4.38;;
42904;SDS011;28550;51.228;4.528;2023-05-20T08:25:53;6.85;;;3.90;;
42904;SDS011;28550;51.228;4.528;2023-05-20T08:28:19;7.82;;;4.13;;
42904;SDS011;28550;51.228;4.528;2023-05-20T08:30:46;7.13;;;3.72;;
42904;SDS011;28550;51.228;4.528;2023-05-20T08:33:14;9.35;;;4.15;;
42904;SDS011;28550;51.228;4.528;2023-05-20T08:35:41;8.20;;;3.47;;
42904;SDS011;28550;51.228;4.528;2023-05-20T08:38:07;11.00;;;4.03;;
42904;SDS011;28550;51.228;4.528;2023-05-20T08:40:33;6.82;;;3.83;;
42904;SDS011;28550;51.228;4.528;2023-05-20T08:43:02;6.45;;;3.75;;
42904;SDS011;28550;51.228;4.528;2023-05-20T08:45:30;6.55;;;3.30;;
42904;SDS011;28550;51.228;4.528;2023-05-20T08:47:56;8.07;;;3.38;;
42904;SDS011;28550;51.228;4.528;2023-05-20T08:50:24;5.95;;;3.38;;
42904;SDS011;28550;51.228;4.528;2023-05-20T08:52:50;3.45;;;3.15;;
42904;SDS011;28550;51.228;4.528;2023-05-20T08:58:02;4.97;;;3.33;;
42904;SDS011;28550;51.228;4.528;2023-05-20T09:00:28;19.08;;;4.40;;
42904;SDS011;28550;51.228;4.528;2023-05-20T09:02:54;22.65;;;5.93;;
42904;SDS011;28550;51.228;4.528;2023-05-20T09:05:21;11.75;;;3.63;;
42904;SDS011;28550;51.228;4.528;2023-05-20T09:07:47;17.67;;;4.47;;
42904;SDS011;28550;51.228;4.528;2023-05-20T09:10:13;6.88;;;3.72;;
42904;SDS011;28550;51.228;4.528;2023-05-20T09:12:39;16.00;;;3.50;;
42904;SDS011;28550;51.228;4.528;2023-05-20T09:15:05;5.75;;;3.10;;
42904;SDS011;28550;51.228;4.528;2023-05-20T09:17:35;9.88;;;3.60;;
42904;SDS011;28550;51.228;4.528;2023-05-20T09:20:04;9.50;;;4.15;;
42904;SDS011;28550;51.228;4.528;2023-05-20T09:22:32;54.03;;;7.60;;
42904;SDS011;28550;51.228;4.528;2023-05-20T09:24:58;10.38;;;3.60;;
42904;SDS011;28550;51.228;4.528;2023-05-20T09:27:24;12.48;;;4.15;;
42904;SDS011;28550;51.228;4.528;2023-05-20T09:29:51;8.07;;;3.70;;
42904;SDS011;28550;51.228;4.528;2023-05-20T09:32:18;5.78;;;3.33;;
42904;SDS011;28550;51.228;4.528;2023-05-20T09:34:48;8.02;;;3.42;;
42904;SDS011;28550;51.228;4.528;2023-05-20T09:37:16;7.57;;;3.67;;
42904;SDS011;28550;51.228;4.528;2023-05-20T09:40:05;5.75;;;3.35;;
42904;SDS011;28550;51.228;4.528;2023-05-20T09:45:37;22.70;;;4.60;;
42904;SDS011;28550;51.228;4.528;2023-05-20T09:48:03;10.68;;;3.85;;
42904;SDS011;28550;51.228;4.528;2023-05-20T09:50:32;11.45;;;4.03;;
42904;SDS011;28550;51.228;4.528;2023-05-20T09:53:02;10.07;;;3.10;;
42904;SDS011;28550;51.228;4.528;2023-05-20T09:55:29;5.28;;;3.63;;
42904;SDS011;28550;51.228;4.528;2023-05-20T09:57:55;11.98;;;4.05;;
42904;SDS011;28550;51.228;4.528;2023-05-20T10:00:25;16.40;;;5.13;;
42904;SDS011;28550;51.228;4.528;2023-05-20T10:02:51;11.02;;;4.30;;
42904;SDS011;28550;51.228;4.528;2023-05-20T10:05:18;16.75;;;3.97;;
42904;SDS011;28550;51.228;4.528;2023-05-20T10:34:16;10.77;;;3.30;;
42904;SDS011;28550;51.228;4.528;2023-05-20T10:36:56;9.68;;;3.55;;
42904;SDS011;28550;51.228;4.528;2023-05-20T10:39:27;9.43;;;3.50;;
42904;SDS011;28550;51.228;4.528;2023-05-20T10:42:10;12.18;;;3.35;;
42904;SDS011;28550;51.228;4.528;2023-05-20T10:44:41;20.45;;;4.72;;
42904;SDS011;28550;51.228;4.528;2023-05-20T10:47:11;10.73;;;4.13;;
42904;SDS011;28550;51.228;4.528;2023-05-20T10:49:44;7.80;;;3.47;;
42904;SDS011;28550;51.228;4.528;2023-05-20T10:52:11;5.78;;;4.22;;
42904;SDS011;28550;51.228;4.528;2023-05-20T10:54:47;4.57;;;3.40;;
42904;SDS011;28550;51.228;4.528;2023-05-20T10:57:19;7.10;;;2.85;;
42904;SDS011;28550;51.228;4.528;2023-05-20T10:59:46;5.00;;;3.40;;
42904;SDS011;28550;51.228;4.528;2023-05-20T11:02:16;10.93;;;4.15;;
42904;SDS011;28550;51.228;4.528;2023-05-20T11:04:43;9.93;;;3.30;;
42904;SDS011;28550;51.228;4.528;2023-05-20T11:07:11;7.30;;;3.30;;
42904;SDS011;28550;51.228;4.528;2023-05-20T11:12:13;9.18;;;3.47;;
42904;SDS011;28550;51.228;4.528;2023-05-20T11:14:39;7.43;;;3.45;;
42904;SDS011;28550;51.228;4.528;2023-05-20T11:17:06;3.92;;;2.55;;
42904;SDS011;28550;51.228;4.528;2023-05-20T11:19:35;3.47;;;3.10;;
42904;SDS011;28550;51.228;4.528;2023-05-20T11:22:02;9.25;;;3.60;;
42904;SDS011;28550;51.228;4.528;2023-05-20T11:24:27;4.85;;;3.30;;
42904;SDS011;28550;51.228;4.528;2023-05-20T11:26:54;5.93;;;3.95;;
42904;SDS011;28550;51.228;4.528;2023-05-20T11:29:24;5.85;;;3.00;;
42904;SDS011;28550;51.228;4.528;2023-05-20T11:31:50;4.82;;;2.55;;
42904;SDS011;28550;51.228;4.528;2023-05-20T11:34:21;6.30;;;3.00;;
42904;SDS011;28550;51.228;4.528;2023-05-20T11:36:57;8.70;;;3.35;;
42904;SDS011;28550;51.228;4.528;2023-05-20T11:39:23;4.70;;;2.88;;
42904;SDS011;28550;51.228;4.528;2023-05-20T11:41:53;5.18;;;3.28;;
42904;SDS011;28550;51.228;4.528;2023-05-20T11:44:26;4.25;;;3.22;;
42904;SDS011;28550;51.228;4.528;2023-05-20T11:46:58;5.75;;;4.05;;
42904;SDS011;28550;51.228;4.528;2023-05-20T11:49:28;14.48;;;6.60;;
42904;SDS011;28550;51.228;4.528;2023-05-20T11:51:55;7.80;;;4.82;;
42904;SDS011;28550;51.228;4.528;2023-05-20T11:54:30;7.95;;;5.07;;
42904;SDS011;28550;51.228;4.528;2023-05-20T11:57:00;4.72;;;3.72;;
42904;SDS011;28550;51.228;4.528;2023-05-20T11:59:26;5.43;;;3.78;;
42904;SDS011;28550;51.228;4.528;2023-05-20T12:01:52;10.40;;;4.38;;
42904;SDS011;28550;51.228;4.528;2023-05-20T12:04:19;20.52;;;5.13;;
42904;SDS011;28550;51.228;4.528;2023-05-20T12:06:46;6.78;;;4.25;;
42904;SDS011;28550;51.228;4.528;2023-05-20T12:09:13;8.25;;;3.75;;
42904;SDS011;28550;51.228;4.528;2023-05-20T12:11:39;6.63;;;3.75;;
42904;SDS011;28550;51.228;4.528;2023-05-20T12:14:05;6.60;;;4.35;;
42904;SDS011;28550;51.228;4.528;2023-05-20T12:16:34;8.65;;;3.60;;
42904;SDS011;28550;51.228;4.528;2023-05-20T12:19:01;7.22;;;4.45;;
42904;SDS011;28550;51.228;4.528;2023-05-20T12:24:03;6.70;;;3.78;;
42904;SDS011;28550;51.228;4.528;2023-05-20T12:26:32;15.60;;;4.88;;
42904;SDS011;28550;51.228;4.528;2023-05-20T12:28:59;9.88;;;3.58;;
42904;SDS011;28550;51.228;4.528;2023-05-20T12:31:26;5.45;;;3.70;;
42904;SDS011;28550;51.228;4.528;2023-05-20T12:33:53;12.00;;;3.70;;
42904;SDS011;28550;51.228;4.528;2023-05-20T12:36:20;6.55;;;3.72;;
42904;SDS011;28550;51.228;4.528;2023-05-20T12:38:47;5.88;;;3.60;;
42904;SDS011;28550;51.228;4.528;2023-05-20T12:41:13;8.13;;;3.58;;
42904;SDS011;28550;51.228;4.528;2023-05-20T12:43:38;8.38;;;4.00;;
42904;SDS011;28550;51.228;4.528;2023-05-20T12:46:07;8.60;;;4.03;;
42904;SDS011;28550;51.228;4.528;2023-05-20T12:48:33;15.07;;;4.50;;
42904;SDS011;28550;51.228;4.528;2023-05-20T12:51:00;8.63;;;4.18;;
42904;SDS011;28550;51.228;4.528;2023-05-20T12:53:29;6.63;;;4.30;;
42904;SDS011;28550;51.228;4.528;2023-05-20T12:55:55;8.95;;;4.20;;
42904;SDS011;28550;51.228;4.528;2023-05-20T12:58:23;5.97;;;3.80;;
42904;SDS011;28550;51.228;4.528;2023-05-20T13:00:49;5.57;;;3.50;;
42904;SDS011;28550;51.228;4.528;2023-05-20T13:03:15;8.32;;;4.50;;
42904;SDS011;28550;51.228;4.528;2023-05-20T13:05:41;5.78;;;3.80;;
42904;SDS011;28550;51.228;4.528;2023-05-20T13:08:09;7.50;;;4.22;;
42904;SDS011;28550;51.228;4.528;2023-05-20T13:10:36;5.40;;;3.50;;
42904;SDS011;28550;51.228;4.528;2023-05-20T13:13:06;6.05;;;3.67;;
42904;SDS011;28550;51.228;4.528;2023-05-20T13:15:33;6.00;;;4.28;;
42904;SDS011;28550;51.228;4.528;2023-05-20T13:17:59;4.07;;;3.30;;
42904;SDS011;28550;51.228;4.528;2023-05-20T13:20:25;6.38;;;3.50;;
42904;SDS011;28550;51.228;4.528;2023-05-20T13:22:52;5.35;;;3.80;;
42904;SDS011;28550;51.228;4.528;2023-05-20T13:25:18;3.78;;;3.10;;
42904;SDS011;28550;51.228;4.528;2023-05-20T13:27:43;10.07;;;4.43;;
42904;SDS011;28550;51.228;4.528;2023-05-20T13:30:09;8.38;;;4.60;;
42904;SDS011;28550;51.228;4.528;2023-05-20T13:32:37;9.32;;;4.72;;
42904;SDS011;28550;51.228;4.528;2023-05-20T13:35:04;8.30;;;3.85;;
42904;SDS011;28550;51.228;4.528;2023-05-20T13:37:41;4.38;;;3.67;;
42904;SDS011;28550;51.228;4.528;2023-05-20T13:40:08;17.98;;;5.20;;
42904;SDS011;28550;51.228;4.528;2023-05-20T13:42:44;5.93;;;3.78;;
42904;SDS011;28550;51.228;4.528;2023-05-20T13:47:50;4.97;;;3.38;;
42904;SDS011;28550;51.228;4.528;2023-05-20T13:50:17;8.02;;;3.70;;
42904;SDS011;28550;51.228;4.528;2023-05-20T13:52:46;11.63;;;3.70;;
42904;SDS011;28550;51.228;4.528;2023-05-20T13:55:15;6.22;;;3.58;;
42904;SDS011;28550;51.228;4.528;2023-05-20T13:57:41;7.30;;;3.33;;
42904;SDS011;28550;51.228;4.528;2023-05-20T14:00:07;7.63;;;3.92;;
42904;SDS011;28550;51.228;4.528;2023-05-20T14:02:34;5.55;;;3.25;;
42904;SDS011;28550;51.228;4.528;2023-05-20T14:05:00;5.07;;;3.35;;
42904;SDS011;28550;51.228;4.528;2023-05-20T14:07:26;12.07;;;4.00;;
42904;SDS011;28550;51.228;4.528;2023-05-20T14:09:55;8.80;;;3.22;;
42904;SDS011;28550;51.228;4.528;2023-05-20T14:12:25;7.25;;;3.75;;
42904;SDS011;28550;51.228;4.528;2023-05-20T14:14:56;8.32;;;3.72;;
42904;SDS011;28550;51.228;4.528;2023-05-20T14:17:22;4.90;;;2.97;;
42904;SDS011;28550;51.228;4.528;2023-05-20T14:19:47;6.53;;;3.00;;
42904;SDS011;28550;51.228;4.528;2023-05-20T14:22:16;4.05;;;3.22;;
42904;SDS011;28550;51.228;4.528;2023-05-20T14:24:45;5.82;;;3.53;;
42904;SDS011;28550;51.228;4.528;2023-05-20T14:27:10;8.43;;;3.00;;
42904;SDS011;28550;51.228;4.528;2023-05-20T14:29:39;6.35;;;2.88;;
42904;SDS011;28550;51.228;4.528;2023-05-20T14:32:05;4.72;;;2.95;;
42904;SDS011;28550;51.228;4.528;2023-05-20T14:34:32;7.95;;;3.25;;
42904;SDS011;28550;51.228;4.528;2023-05-20T14:36:58;8.35;;;3.60;;
42904;SDS011;28550;51.228;4.528;2023-05-20T14:39:29;11.02;;;3.75;;
42904;SDS011;28550;51.228;4.528;2023-05-20T14:41:55;5.53;;;3.85;;
42904;SDS011;28550;51.228;4.528;2023-05-20T14:44:22;8.20;;;3.40;;
42904;SDS011;28550;51.228;4.528;2023-05-20T14:46:47;4.05;;;3.53;;
42904;SDS011;28550;51.228;4.528;2023-05-20T14:49:15;5.93;;;3.22;;
42904;SDS011;28550;51.228;4.528;2023-05-20T14:51:41;5.53;;;3.50;;
42904;SDS011;28550;51.228;4.528;2023-05-20T14:54:07;6.13;;;3.55;;
42904;SDS011;28550;51.228;4.528;2023-05-20T14:56:37;6.65;;;3.28;;
42904;SDS011;28550;51.228;4.528;2023-05-20T14:59:03;6.60;;;3.55;;
42904;SDS011;28550;51.228;4.528;2023-05-20T15:01:29;12.52;;;3.55;;
42904;SDS011;28550;51.228;4.528;2023-05-20T15:03:56;5.30;;;3.30;;
42904;SDS011;28550;51.228;4.528;2023-05-20T15:06:21;3.85;;;3.42;;
42904;SDS011;28550;51.228;4.528;2023-05-20T15:08:49;7.60;;;3.58;;
42904;SDS011;28550;51.228;4.528;2023-05-20T15:11:15;5.43;;;3.10;;
42904;SDS011;28550;51.228;4.528;2023-05-20T15:13:41;3.08;;;2.78;;
42904;SDS011;28550;51.228;4.528;2023-05-20T15:16:10;3.90;;;3.50;;
42904;SDS011;28550;51.228;4.528;2023-05-20T15:18:36;4.93;;;3.42;;